Florence, OR

7:14 AM PST on December 05, 2016 (GMT -0800)
Primrose Lane | | Change Station

Elev 43 ft 43.98 °N, 124.10 °W | Updated 14 minutes ago

Overcast
Overcast
36.8 °F
Feels Like 37 °F
N
0.0
Wind Variable Wind from East
Gusts 0.0 mph

Today
High -- | Low -- °F
--% Chance of Precip.
Yesterday
High -- | Low -- °F
Precip. -- in
Pressure 30.25 in
Visibility 10.0 miles
Clouds Scattered Clouds 300 ft
Mostly Cloudy 3900 ft
Overcast 5000 ft
Windchill 37 °F
Dew Point 37 °F
Humidity 100%
Rainfall 0.00 in
Snow Depth Not available.
7:35 AM 4:38 PM
Waxing Crescent, 32% visible
METAR KOTH 051455Z 15008KT 10SM SCT003 BKN039 OVC050 02/02 A3025 RMK AO1 57007
Pressure 30.25 in
Visibility 10.0 miles
Clouds Scattered Clouds 300 ft
Mostly Cloudy 3900 ft
Overcast 5000 ft
Windchill 37 °F
Dew Point 37 °F
Humidity 100%
Rainfall 0.00 in
Snow Depth Not available.
7:35 AM 4:38 PM
Waxing Crescent, 32% visible
METAR KOTH 051455Z 15008KT 10SM SCT003 BKN039 OVC050 02/02 A3025 RMK AO1 57007

10-Day Weather Forecast

Almanac

Astronomy

Dec. 05, 2016 Rise Set
Actual Time
Civil Twilight
Nautical Twilight
Astronomical Twilight
Moon
Length of Visible Light
Length of Day
Tomorrow will be .
, % of the Moon is Illuminated

Today's Extremes

State Highs State Lows

Community

WunderPhotos

Upload Photos

1,955,789 photos uploaded!

WunderBlog® & News

Nearby

Air Quality

  Air Quality AQ Index Pollutant
Not available.

Snow Depth

Station Depth Elevation

Earthquake Activity

City Distance Mag. Time & Date
Minimum magnitude displayed is 2.5.

Coastal Water Temperatures

Place Temperature

Stations

Nearby Weather Stations

Station Location Temp. Windchill Dew Point Humidity Wind Precip. Elev Updated Type
                   

Watches & Warnings

There are currently no watches in effect.